createdAt,value
2023-04-02T00:00:29.453Z,7.37
2023-04-02T00:02:51.095Z,8.07
2023-04-02T00:05:30.167Z,8.57
2023-04-02T00:07:58.041Z,7.77
2023-04-02T00:10:39.858Z,9.00
2023-04-02T00:13:10.559Z,8.47
2023-04-02T00:15:34.130Z,9.30
2023-04-02T00:17:57.942Z,9.65
2023-04-02T00:20:22.131Z,9.35
2023-04-02T00:22:45.004Z,10.00
2023-04-02T00:25:14.109Z,10.20
2023-04-02T00:27:36.660Z,9.97
2023-04-02T00:29:59.801Z,9.07
2023-04-02T00:32:29.041Z,10.13
2023-04-02T00:34:51.589Z,9.47
2023-04-02T00:37:25.195Z,9.50
2023-04-02T00:39:47.784Z,9.75
2023-04-02T00:42:12.900Z,9.53
2023-04-02T00:44:44.037Z,8.77
2023-04-02T00:47:26.943Z,8.60
2023-04-02T00:49:59.448Z,8.67
2023-04-02T00:52:28.365Z,8.30
2023-04-02T00:55:01.096Z,7.07
2023-04-02T00:57:28.290Z,8.50
2023-04-02T01:00:21.410Z,8.03
2023-04-02T01:02:43.214Z,8.60
2023-04-02T01:05:25.827Z,7.27
2023-04-02T01:08:12.958Z,8.63
2023-04-02T01:10:58.650Z,7.53
2023-04-02T01:13:32.749Z,7.33
2023-04-02T01:16:16.891Z,7.78
2023-04-02T01:19:04.587Z,8.35
2023-04-02T01:22:08.637Z,8.70
2023-04-02T01:24:33.992Z,9.20
2023-04-02T01:27:04.095Z,7.13
2023-04-02T01:29:39.137Z,5.67
2023-04-02T01:32:07.776Z,5.37
2023-04-02T01:34:31.167Z,5.93
2023-04-02T01:37:32.229Z,5.55
2023-04-02T01:40:13.004Z,4.97
2023-04-02T01:42:46.046Z,5.40
2023-04-02T01:45:19.562Z,7.23
2023-04-02T01:47:44.753Z,8.03
2023-04-02T01:50:44.116Z,8.00
2023-04-02T01:53:15.083Z,6.63
2023-04-02T01:55:57.310Z,7.33
2023-04-02T01:58:26.392Z,7.27
2023-04-02T02:01:02.116Z,6.73
2023-04-02T02:03:25.329Z,7.17
2023-04-02T02:05:47.505Z,7.43
2023-04-02T02:08:31.506Z,6.77
2023-04-02T02:10:53.468Z,7.00
2023-04-02T02:13:16.436Z,7.00
2023-04-02T02:15:38.194Z,7.07
2023-04-02T02:18:06.872Z,7.00
2023-04-02T02:20:29.213Z,6.83
2023-04-02T02:22:51.960Z,7.13
2023-04-02T02:25:32.530Z,6.20
2023-04-02T02:28:14.156Z,6.77
2023-04-02T02:30:49.110Z,7.03
2023-04-02T02:33:24.083Z,6.53
2023-04-02T02:36:35.764Z,6.63
2023-04-02T02:39:13.410Z,5.83
2023-04-02T02:41:42.311Z,5.57
2023-04-02T02:44:11.096Z,6.30
2023-04-02T02:46:38.718Z,6.60
2023-04-02T02:49:05.663Z,6.30
2023-04-02T02:51:40.860Z,6.50
2023-04-02T02:54:06.695Z,5.70
2023-04-02T02:56:37.286Z,5.70
2023-04-02T02:59:00.319Z,6.60
2023-04-02T03:01:30.453Z,6.03
2023-04-02T03:03:55.435Z,5.70
2023-04-02T03:06:20.746Z,5.97
2023-04-02T03:09:14.895Z,5.30
2023-04-02T03:11:54.584Z,5.70
2023-04-02T03:14:32.654Z,6.13
2023-04-02T03:17:08.979Z,5.93
2023-04-02T03:19:46.332Z,5.93
2023-04-02T03:22:25.116Z,7.87
2023-04-02T03:25:02.075Z,8.90
2023-04-02T03:27:34.805Z,9.27
2023-04-02T03:30:09.621Z,9.47
2023-04-02T03:32:38.448Z,8.63
2023-04-02T03:35:22.651Z,8.10
2023-04-02T03:38:27.071Z,8.35
2023-04-02T03:41:47.298Z,9.00
2023-04-02T03:44:28.453Z,8.60
2023-04-02T03:47:10.718Z,9.00
2023-04-02T03:50:03.180Z,9.30
2023-04-02T03:52:29.281Z,9.10
2023-04-02T03:54:57.020Z,9.13
2023-04-02T03:57:33.134Z,7.57
2023-04-02T04:00:14.412Z,9.13
2023-04-02T04:02:54.721Z,8.40
2023-04-02T04:05:37.881Z,9.00
2023-04-02T04:08:18.690Z,8.83
2023-04-02T04:10:43.241Z,9.30
2023-04-02T04:13:38.978Z,8.35
2023-04-02T04:16:32.721Z,8.77
2023-04-02T04:19:24.820Z,9.33
2023-04-02T04:22:30.092Z,8.70
2023-04-02T04:25:33.821Z,9.37
2023-04-02T04:28:34.039Z,8.50
2023-04-02T04:34:22.918Z,8.47
2023-04-02T04:37:07.958Z,8.33
2023-04-02T04:40:09.224Z,7.67
2023-04-02T04:42:58.187Z,7.60
2023-04-02T04:46:16.454Z,8.00
2023-04-02T04:49:09.477Z,7.87
2023-04-02T04:51:57.340Z,7.13
2023-04-02T04:54:40.395Z,8.00
2023-04-02T04:57:33.790Z,7.20
2023-04-02T05:00:45.502Z,7.50
2023-04-02T05:03:33.033Z,7.73
2023-04-02T05:06:34.036Z,7.97
2023-04-02T05:09:49.908Z,7.37
2023-04-02T05:12:51.517Z,6.60
2023-04-02T05:15:32.102Z,6.03
2023-04-02T05:18:34.720Z,6.70
2023-04-02T05:21:16.465Z,6.57
2023-04-02T05:24:00.164Z,6.63
2023-04-02T05:26:42.849Z,5.65
2023-04-02T05:29:26.488Z,5.53
2023-04-02T05:32:04.270Z,6.43
2023-04-02T05:34:42.629Z,6.60
2023-04-02T05:37:26.687Z,6.17
2023-04-02T05:39:56.859Z,7.10
2023-04-02T05:42:35.300Z,7.73
2023-04-02T05:45:41.293Z,7.07
2023-04-02T05:48:30.710Z,7.83
2023-04-02T05:51:11.995Z,8.30
2023-04-02T05:54:05.055Z,7.93
2023-04-02T05:56:48.837Z,8.53
2023-04-02T05:59:34.387Z,6.10
2023-04-02T06:02:36.339Z,6.60
2023-04-02T06:05:16.829Z,6.47
2023-04-02T06:08:03.361Z,6.77
2023-04-02T06:10:51.201Z,7.07
2023-04-02T06:13:25.241Z,6.77
2023-04-02T06:15:56.538Z,5.60
2023-04-02T06:18:36.821Z,5.33
2023-04-02T06:21:14.254Z,6.30
2023-04-02T06:23:56.958Z,5.37
2023-04-02T06:29:40.215Z,4.17
2023-04-02T06:32:16.505Z,4.70
2023-04-02T06:34:48.904Z,5.27
2023-04-02T06:37:40.037Z,4.60
2023-04-02T06:40:35.683Z,5.10
2023-04-02T06:43:35.665Z,5.00
2023-04-02T06:46:42.412Z,4.43
2023-04-02T06:49:36.412Z,3.47
2023-04-02T06:52:13.728Z,4.10
2023-04-02T06:54:46.503Z,3.43
2023-04-02T06:57:18.668Z,3.80
2023-04-02T06:59:53.543Z,4.18
2023-04-02T07:02:39.349Z,3.53
2023-04-02T07:05:13.775Z,3.42
2023-04-02T07:07:50.923Z,4.80
2023-04-02T07:10:22.947Z,3.63
2023-04-02T07:12:54.835Z,3.87
2023-04-02T07:15:27.897Z,4.27
2023-04-02T07:18:00.390Z,3.57
2023-04-02T07:20:38.959Z,3.83
2023-04-02T07:23:15.796Z,3.00
2023-04-02T07:25:50.327Z,3.25
2023-04-02T07:28:23.173Z,3.53
2023-04-02T07:30:56.493Z,2.90
2023-04-02T07:33:31.213Z,2.50
2023-04-02T07:38:34.825Z,2.40
2023-04-02T07:41:07.407Z,3.10
2023-04-02T07:43:40.300Z,3.00
2023-04-02T07:46:16.576Z,2.87
2023-04-02T07:48:48.408Z,3.10
2023-04-02T07:51:26.620Z,3.00
2023-04-02T07:53:58.408Z,2.50
2023-04-02T07:56:31.829Z,2.40
2023-04-02T07:59:05.046Z,2.93
2023-04-02T08:01:36.925Z,2.23
2023-04-02T08:04:18.882Z,2.20
2023-04-02T08:06:50.786Z,2.30
2023-04-02T08:09:22.740Z,2.80
2023-04-02T08:11:54.497Z,2.53
2023-04-02T08:14:26.397Z,2.50
2023-04-02T08:16:58.408Z,2.00
2023-04-02T08:19:30.795Z,2.60
2023-04-02T08:22:02.603Z,2.00
2023-04-02T08:24:34.427Z,2.30
2023-04-02T08:27:07.566Z,3.03
2023-04-02T08:29:39.376Z,2.90
2023-04-02T08:32:16.220Z,2.23
2023-04-02T08:34:47.985Z,2.40
2023-04-02T08:37:19.770Z,3.03
2023-04-02T08:39:51.630Z,2.43
2023-04-02T08:42:46.201Z,1.93
2023-04-02T08:45:40.190Z,2.57
2023-04-02T08:48:15.495Z,2.40
2023-04-02T08:50:47.585Z,2.63
2023-04-02T08:53:34.625Z,2.00
2023-04-02T08:56:26.077Z,2.17
2023-04-02T08:59:03.707Z,1.90
2023-04-02T09:02:01.833Z,2.03
2023-04-02T09:04:34.660Z,2.17
2023-04-02T09:07:17.053Z,2.03
2023-04-02T09:09:51.082Z,2.70
2023-04-02T09:12:29.287Z,2.40
2023-04-02T09:15:29.506Z,2.33
2023-04-02T09:18:17.926Z,2.17
2023-04-02T09:20:50.635Z,1.80
2023-04-02T09:23:26.170Z,2.00
2023-04-02T09:26:04.003Z,2.50
2023-04-02T09:28:38.036Z,2.23
2023-04-02T09:31:22.326Z,2.00
2023-04-02T09:33:54.818Z,2.92
2023-04-02T09:36:38.317Z,3.00
2023-04-02T09:39:23.236Z,1.77
2023-04-02T09:42:05.156Z,2.17
2023-04-02T09:44:37.895Z,2.67
2023-04-02T09:47:27.365Z,2.07
2023-04-02T09:50:34.116Z,2.10
2023-04-02T09:53:31.341Z,2.20
2023-04-02T09:56:15.256Z,1.70
2023-04-02T09:59:03.221Z,1.83
2023-04-02T10:01:57.082Z,1.90
2023-04-02T10:04:46.793Z,2.00
2023-04-02T10:07:43.732Z,1.80
2023-04-02T10:10:18.694Z,2.00
2023-04-02T10:12:59.680Z,1.97
2023-04-02T10:15:54.259Z,1.60
2023-04-02T10:18:49.684Z,1.93
2023-04-02T10:21:35.098Z,1.83
2023-04-02T10:24:16.264Z,2.07
2023-04-02T10:27:22.577Z,2.20
2023-04-02T10:30:09.562Z,1.87
2023-04-02T10:33:06.869Z,2.00
2023-04-02T10:36:19.603Z,2.10
2023-04-02T10:38:58.105Z,2.00
2023-04-02T10:42:12.207Z,1.77
2023-04-02T10:45:41.496Z,1.60
2023-04-02T10:48:33.766Z,1.97
2023-04-02T10:51:25.369Z,1.53
2023-04-02T10:54:13.719Z,2.00
2023-04-02T10:56:51.186Z,2.57
2023-04-02T10:59:30.132Z,2.17
2023-04-02T11:02:34.179Z,4.30
2023-04-02T11:05:22.005Z,2.00
2023-04-02T11:08:10.652Z,2.10
2023-04-02T11:10:50.669Z,1.60
2023-04-02T11:13:31.503Z,1.80
2023-04-02T11:16:03.957Z,2.27
2023-04-02T11:18:37.184Z,2.20
2023-04-02T11:21:57.996Z,2.27
2023-04-02T11:24:38.561Z,1.73
2023-04-02T11:27:28.100Z,1.90
2023-04-02T11:30:26.493Z,1.70
2023-04-02T11:33:38.108Z,1.83
2023-04-02T11:36:53.636Z,2.00
2023-04-02T11:39:53.549Z,2.57
2023-04-02T11:42:34.506Z,1.80
2023-04-02T11:45:24.568Z,1.90
2023-04-02T11:47:59.587Z,1.47
2023-04-02T11:50:31.557Z,1.70
2023-04-02T11:53:20.466Z,1.80
2023-04-02T11:56:02.130Z,2.03
2023-04-02T11:59:00.379Z,2.13
2023-04-02T12:02:03.407Z,1.53
2023-04-02T12:05:16.398Z,1.60
2023-04-02T12:08:05.799Z,1.90
2023-04-02T12:10:56.595Z,1.80
2023-04-02T12:13:40.533Z,2.20
2023-04-02T12:16:14.273Z,1.63
2023-04-02T12:18:54.521Z,3.37
2023-04-02T12:21:29.488Z,1.73
2023-04-02T12:24:03.824Z,1.97
2023-04-02T12:26:38.084Z,1.70
2023-04-02T12:29:26.845Z,2.00
2023-04-02T12:31:59.971Z,2.00
2023-04-02T12:34:31.853Z,3.13
2023-04-02T12:37:05.517Z,2.10
2023-04-02T12:39:37.374Z,3.50
2023-04-02T12:42:37.632Z,2.80
2023-04-02T12:45:41.756Z,3.00
2023-04-02T12:48:13.731Z,2.40
2023-04-02T12:50:47.248Z,1.90
2023-04-02T12:53:24.057Z,2.80
2023-04-02T12:55:56.315Z,2.57
2023-04-02T12:58:41.442Z,2.53
2023-04-02T13:01:24.697Z,2.75
2023-04-02T13:04:12.383Z,2.80
2023-04-02T13:06:55.163Z,3.30
2023-04-02T13:09:39.283Z,2.50
2023-04-02T13:12:34.514Z,1.87
2023-04-02T13:15:19.964Z,2.60
2023-04-02T13:18:13.375Z,2.07
2023-04-02T13:21:06.251Z,2.40
2023-04-02T13:23:38.112Z,2.93
2023-04-02T13:26:24.511Z,2.80
2023-04-02T13:29:19.340Z,2.13
2023-04-02T13:31:54.115Z,2.17
2023-04-02T13:37:00.444Z,2.30
2023-04-02T13:39:32.214Z,2.10
2023-04-02T13:42:06.604Z,2.23
2023-04-02T13:44:38.428Z,2.47
2023-04-02T13:47:14.753Z,2.00
2023-04-02T13:49:49.844Z,2.03
2023-04-02T13:52:21.593Z,2.20
2023-04-02T13:54:59.994Z,1.90
2023-04-02T13:57:31.816Z,2.10
2023-04-02T14:00:11.015Z,2.10
2023-04-02T14:02:54.012Z,2.07
2023-04-02T14:06:03.007Z,1.70
2023-04-02T14:08:52.507Z,2.10
2023-04-02T14:12:10.932Z,2.30
2023-04-02T14:15:27.568Z,1.70
2023-04-02T14:18:41.332Z,2.20
2023-04-02T14:21:43.743Z,2.10
2023-04-02T14:24:41.836Z,1.70
2023-04-02T14:27:42.856Z,1.70
2023-04-02T14:30:28.169Z,1.50
2023-04-02T14:33:30.394Z,1.60
2023-04-02T14:36:28.302Z,1.50
2023-04-02T14:39:18.124Z,1.87
2023-04-02T14:42:13.734Z,1.40
2023-04-02T14:47:39.703Z,4.67
2023-04-02T14:50:41.805Z,2.20
2023-04-02T14:53:48.902Z,3.20
2023-04-02T14:56:24.506Z,1.63
2023-04-02T14:59:43.224Z,1.80
2023-04-02T15:02:30.465Z,2.00
2023-04-02T15:05:32.391Z,2.00
2023-04-02T15:08:29.553Z,1.77
2023-04-02T15:11:08.423Z,1.97
2023-04-02T15:13:52.299Z,1.80
2023-04-02T15:16:28.824Z,1.90
2023-04-02T15:19:02.825Z,1.80
2023-04-02T15:22:03.922Z,1.52
2023-04-02T15:25:20.624Z,1.83
2023-04-02T15:28:13.660Z,1.47
2023-04-02T15:30:54.368Z,1.67
2023-04-02T15:33:40.536Z,2.13
2023-04-02T15:36:55.939Z,1.30
2023-04-02T15:39:56.737Z,1.40
2023-04-02T15:42:34.716Z,1.30
2023-04-02T15:45:08.119Z,1.60
2023-04-02T15:48:11.872Z,1.40
2023-04-02T15:50:49.564Z,2.00
2023-04-02T15:53:39.188Z,1.50
2023-04-02T15:56:38.551Z,2.43
2023-04-02T15:59:40.847Z,4.20
2023-04-02T16:02:43.767Z,6.47
2023-04-02T16:05:43.394Z,2.00
2023-04-02T16:09:00.904Z,1.70
2023-04-02T16:11:33.660Z,2.30
2023-04-02T16:14:27.908Z,1.67
2023-04-02T16:17:17.500Z,1.70
2023-04-02T16:20:18.393Z,1.70
2023-04-02T16:23:22.282Z,2.30
2023-04-02T16:26:06.165Z,1.80
2023-04-02T16:29:02.269Z,1.70
2023-04-02T16:32:02.251Z,1.90
2023-04-02T16:34:57.644Z,1.60
2023-04-02T16:37:50.333Z,1.90
2023-04-02T16:40:25.139Z,2.30
2023-04-02T16:43:08.681Z,2.75
2023-04-02T16:46:15.760Z,3.30
2023-04-02T16:49:04.711Z,2.23
2023-04-02T16:52:09.230Z,2.10
2023-04-02T16:55:01.172Z,2.20
2023-04-02T16:57:56.945Z,2.20
2023-04-02T17:01:05.037Z,1.73
2023-04-02T17:04:32.582Z,2.40
2023-04-02T17:07:34.576Z,1.63
2023-04-02T17:10:30.155Z,5.90
2023-04-02T17:16:32.467Z,2.13
2023-04-02T17:19:14.020Z,1.87
2023-04-02T17:21:52.186Z,1.43
2023-04-02T17:24:31.968Z,3.10
2023-04-02T17:27:17.076Z,3.10
2023-04-02T17:29:55.067Z,2.17
2023-04-02T17:32:32.620Z,2.13
2023-04-02T17:35:32.188Z,2.80
2023-04-02T17:38:30.415Z,2.00
2023-04-02T17:41:36.596Z,2.10
2023-04-02T17:44:42.270Z,1.77
2023-04-02T17:47:46.267Z,4.07
2023-04-02T17:50:38.660Z,4.90
2023-04-02T17:53:34.708Z,8.10
2023-04-02T17:56:33.586Z,4.80
2023-04-02T17:59:23.719Z,3.47
2023-04-02T18:02:24.707Z,4.50
2023-04-02T18:05:32.762Z,3.07
2023-04-02T18:08:34.826Z,3.20
2023-04-02T18:11:14.177Z,2.87
2023-04-02T18:14:42.360Z,3.80
2023-04-02T18:17:38.645Z,2.83
2023-04-02T18:20:42.899Z,4.70
2023-04-02T18:23:36.393Z,2.53
2023-04-02T18:26:44.258Z,4.30
2023-04-02T18:29:40.269Z,3.13
2023-04-02T18:33:03.308Z,2.20
2023-04-02T18:35:53.527Z,1.90
2023-04-02T18:38:51.016Z,2.00
2023-04-02T18:41:57.461Z,1.90
2023-04-02T18:45:03.382Z,2.03
2023-04-02T18:48:01.608Z,2.30
2023-04-02T18:50:45.965Z,1.90
2023-04-02T18:53:24.286Z,2.42
2023-04-02T18:56:13.998Z,1.70
2023-04-02T18:58:52.798Z,1.90
2023-04-02T19:01:39.611Z,1.90
2023-04-02T19:04:20.543Z,2.70
2023-04-02T19:07:04.109Z,2.90
2023-04-02T19:09:44.189Z,7.60
2023-04-02T19:12:22.228Z,4.60
2023-04-02T19:14:55.914Z,3.30
2023-04-02T19:17:39.450Z,4.80
2023-04-02T19:20:40.783Z,10.65
2023-04-02T19:24:00.054Z,7.90
2023-04-02T19:27:27.282Z,10.63
2023-04-02T19:30:17.169Z,9.20
2023-04-02T19:33:27.095Z,8.67
2023-04-02T19:36:41.005Z,7.93
2023-04-02T19:39:50.032Z,6.27
2023-04-02T19:42:46.239Z,7.10
2023-04-02T19:45:47.859Z,8.30
2023-04-02T19:48:26.720Z,10.40
2023-04-02T19:50:58.460Z,9.90
2023-04-02T19:53:30.414Z,9.87
2023-04-02T19:56:03.406Z,9.50
2023-04-02T19:58:36.476Z,9.33
2023-04-02T20:01:08.231Z,9.03
2023-04-02T20:03:39.992Z,7.10
2023-04-02T20:06:12.141Z,6.77
2023-04-02T20:08:43.884Z,6.07
2023-04-02T20:11:27.624Z,6.33
2023-04-02T20:13:59.304Z,6.83
2023-04-02T20:16:32.704Z,6.10
2023-04-02T20:19:04.354Z,7.13
2023-04-02T20:21:38.548Z,6.90
2023-04-02T20:24:11.225Z,7.40
2023-04-02T20:26:43.770Z,7.20
2023-04-02T20:29:15.664Z,7.10
2023-04-02T20:31:47.427Z,6.23
2023-04-02T20:34:19.252Z,6.03
2023-04-02T20:36:51.847Z,5.77
2023-04-02T20:39:24.123Z,6.03
2023-04-02T20:42:00.938Z,5.37
2023-04-02T20:44:32.581Z,6.00
2023-04-02T20:47:07.036Z,5.43
2023-04-02T20:49:38.654Z,4.97
2023-04-02T20:52:10.765Z,6.57
2023-04-02T20:54:42.505Z,6.63
2023-04-02T20:57:15.607Z,7.87
2023-04-02T20:59:47.335Z,6.00
2023-04-02T21:02:19.095Z,6.20
2023-04-02T21:04:50.943Z,5.70
2023-04-02T21:07:22.745Z,5.70
2023-04-02T21:09:54.425Z,7.10
2023-04-02T21:12:27.000Z,5.70
2023-04-02T21:15:01.805Z,5.63
2023-04-02T21:17:34.404Z,6.37
2023-04-02T21:20:06.903Z,5.83
2023-04-02T21:22:40.799Z,6.27
2023-04-02T21:25:12.575Z,6.35
2023-04-02T21:27:44.339Z,6.40
2023-04-02T21:30:16.386Z,7.50
2023-04-02T21:32:48.152Z,6.30
2023-04-02T21:35:19.834Z,7.50
2023-04-02T21:37:51.956Z,6.50
2023-04-02T21:40:24.659Z,7.10
2023-04-02T21:42:57.605Z,6.37
2023-04-02T21:45:29.372Z,6.90
2023-04-02T21:48:01.326Z,6.50
2023-04-02T21:50:33.152Z,6.67
2023-04-02T21:53:04.971Z,6.33
2023-04-02T21:55:36.646Z,7.27
2023-04-02T21:58:08.531Z,6.07
2023-04-02T22:00:40.386Z,6.50
2023-04-02T22:03:18.504Z,6.90
2023-04-02T22:06:11.899Z,6.68
2023-04-02T22:08:44.661Z,6.07
2023-04-02T22:11:21.257Z,6.93
2023-04-02T22:13:54.118Z,6.70
2023-04-02T22:16:29.846Z,6.90
2023-04-02T22:19:06.010Z,6.30
2023-04-02T22:21:38.353Z,6.07
2023-04-02T22:24:14.848Z,6.13
2023-04-02T22:26:47.383Z,7.00
2023-04-02T22:29:19.181Z,7.93
2023-04-02T22:31:51.035Z,5.50
2023-04-02T22:34:22.734Z,4.90
2023-04-02T22:36:54.508Z,5.53
2023-04-02T22:39:26.364Z,6.27
2023-04-02T22:41:58.055Z,6.13
2023-04-02T22:44:29.803Z,5.70
2023-04-02T22:47:01.570Z,5.77
2023-04-02T22:49:33.433Z,6.53
2023-04-02T22:52:06.067Z,6.27
2023-04-02T22:54:37.843Z,6.70
2023-04-02T22:57:09.671Z,6.07
2023-04-02T22:59:41.476Z,7.00
2023-04-02T23:02:13.278Z,6.40
2023-04-02T23:04:45.111Z,7.00
2023-04-02T23:07:17.117Z,6.27
2023-04-02T23:09:49.398Z,6.60
2023-04-02T23:12:21.375Z,6.90
2023-04-02T23:14:53.621Z,6.47
2023-04-02T23:17:25.387Z,6.47
2023-04-02T23:19:57.177Z,6.43
2023-04-02T23:22:28.896Z,6.50
2023-04-02T23:25:00.842Z,6.63
2023-04-02T23:27:33.642Z,6.03
2023-04-02T23:30:09.929Z,6.33
2023-04-02T23:32:47.888Z,6.80
2023-04-02T23:35:21.917Z,6.80
2023-04-02T23:37:55.133Z,6.70
2023-04-02T23:40:29.371Z,5.93
2023-04-02T23:43:03.369Z,6.50
2023-04-02T23:45:39.168Z,6.43
2023-04-02T23:48:13.702Z,7.07
2023-04-02T23:50:48.774Z,6.78
2023-04-02T23:53:21.937Z,7.25
2023-04-02T23:55:56.142Z,7.10
2023-04-02T23:58:29.394Z,6.75
